Latest Weather Observations for Mount Hotham Airport

IDV60801

Issued at 11:42 pm EST Wednesday 21 April 2021 (issued every 10 minutes, with the page automatically refreshed every 10 minutes)

About weather observations | Map of weather stations | Latest weather observations for VIC | Other Formats
Station Details ID: 083055 Name: MOUNT HOTHAM AIRPORT Lat: -37.05 Lon: 147.33 Height: 1295.4 m
Data from the previous 72 hours. | See also: Recent months at Mount Hotham Airport
Date/Time
EST
Temp
°C
App
Temp
°C
Dew
Point
°C
Rel
Hum
%
Delta-T
°C
Wind Press
QNH
hPa
Press
MSL
hPa
Rain since
9am
mm
Dir  Spd
km/h
Gust
km/h
Spd
kts
Gust
kts
21/11:30pm -0.7 -2.9 -1.5 94 0.3 CALM 0 0 0 0 1014.2 1012.0 0.0
21/11:00pm -0.8 -3.0 -1.6 94 0.3 CALM 0 0 0 0 1014.2 1012.0 0.0
21/10:30pm -0.3 -2.5 -1.6 91 0.5 CALM 0 0 0 0 1014.4 1012.2 0.0
21/10:00pm -0.5 -2.7 -1.3 94 0.3 CALM 0 0 0 0 1015.1 1012.9 0.0
21/09:30pm 0.2 -1.9 -1.1 91 0.5 CALM 0 0 0 0 1014.8 1012.7 0.0
21/09:00pm 1.4 -0.7 -0.7 86 0.8 CALM 0 0 0 0 1014.8 1012.7 0.0
21/08:30pm 3.1 1.1 0.0 80 1.3 CALM 0 0 0 0 1014.7 1012.6 0.0
21/08:00pm 3.7 1.8 0.4 79 1.4 CALM 0 0 0 0 1014.7 1012.6 0.0
21/07:30pm 3.2 1.2 -0.3 78 1.4 CALM 0 0 0 0 1014.5 1012.3 0.0
21/07:00pm 4.1 2.2 0.6 78 1.5 CALM 0 0 0 0 1014.6 1012.5 0.0
21/06:30pm 4.5 2.6 0.5 75 1.7 CALM 0 0 0 0 1014.6 1012.5 0.0
21/06:00pm 4.5 2.6 0.6 76 1.6 CALM 0 0 0 0 1014.5 1012.3 0.0
21/05:30pm 4.1 -0.2 1.0 80 1.3 WNW 13 15 7 8 1014.0 1011.9 0.0
21/05:00pm 5.4 3.1 0.6 71 2.0 WSW 2 13 1 7 1013.9 1011.8 0.0
21/04:30pm 6.2 3.2 2.1 75 1.8 SSE 7 17 4 9 1013.7 1011.5 0.0
21/04:00pm 6.6 3.6 1.9 72 2.1 ESE 7 9 4 5 1013.7 1011.5 0.0
21/03:30pm 6.6 3.3 2.3 74 1.9 ENE 9 15 5 8 1013.7 1011.5 0.0
21/03:00pm 6.5 2.0 2.0 73 2.0 NE 15 20 8 11 1013.7 1011.5 0.0
21/02:30pm 5.6 1.4 1.5 75 1.8 NE 13 17 7 9 1013.9 1011.8 0.0
21/02:08pm 6.4 2.9 1.3 70 2.2 ENE 9 15 5 8 1014.3 1012.1 0.0
21/02:00pm 6.9 3.5 2.0 71 2.2 ENE 9 17 5 9 1014.4 1012.2 0.0
21/01:30pm 5.6 2.7 1.7 76 1.7 NNE 6 11 3 6 1014.8 1012.7 0.0
21/01:00pm 5.1 2.6 1.4 77 1.6 NE 4 7 2 4 1015.2 1013.0 0.0
21/12:30pm 4.2 1.0 0.7 78 1.5 NNE 7 15 4 8 1015.4 1013.3 0.0
21/12:00pm 4.0 1.8 1.0 81 1.3 SE 2 15 1 8 1016.0 1013.9 0.0
21/11:30am 3.1 0.9 0.8 85 1.0 SW 2 11 1 6 1016.2 1014.1 0.0
21/11:00am 2.9 -0.2 1.3 89 0.7 SSW 7 15 4 8 1016.0 1013.9 0.0
21/10:30am 2.8 -0.2 1.8 93 0.4 SSW 7 11 4 6 1015.7 1013.6 0.0
21/10:00am 2.1 -1.4 1.5 96 0.3 SSW 9 17 5 9 1015.7 1013.6 0.0
21/09:30am 1.3 -3.0 1.2 99 0.0 S 13 19 7 10 1015.9 1013.7 0.0
21/09:00am 0.7 -2.9 0.6 99 0.0 SSW 9 13 5 7 1016.1 1014.0 7.0
21/08:30am 0.3 -3.4 0.2 99 0.0 SSW 9 13 5 7 1015.5 1013.4 7.0
21/08:00am 0.1 -3.6 0.0 99 0.0 S 9 13 5 7 1015.3 1013.2 7.0
21/07:30am 0.0 -3.7 -0.1 99 0.0 S 9 19 5 10 1014.7 1012.6 7.0
21/07:29am 0.0 -3.7 -0.1 99 0.0 S 9 19 5 10 1014.7 1012.6 7.0
21/07:13am -0.1 -3.4 -0.2 99 0.0 SSE 7 13 4 7 1014.4 1012.2 7.0
21/07:05am -0.1 -4.2 -0.2 99 0.0 S 11 22 6 12 1014.2 1012.0 7.0
21/07:00am -0.2 -4.3 -0.3 99 0.0 S 11 22 6 12 1014.0 1011.9 7.0
21/06:51am -0.2 -5.1 -0.3 99 0.0 S 15 24 8 13 1014.0 1011.9 7.0
21/06:30am -0.3 -4.1 -0.4 99 0.0 S 9 15 5 8 1013.9 1011.8 7.0
21/06:00am -0.5 -3.9 -0.8 98 0.1 SSW 7 13 4 7 1014.0 1011.9 7.0
21/05:59am -0.5 -3.9 -0.8 98 0.1 SSW 7 13 4 7 1013.9 1011.8 7.0
21/05:48am -0.5 -4.3 -0.8 98 0.1 SSW 9 15 5 8 1013.8 1011.6 7.0
21/05:47am -0.5 -3.9 -0.9 97 0.1 SSW 7 15 4 8 1013.8 1011.6 7.0
21/05:30am -0.6 -4.1 -1.2 96 0.2 SSW 7 15 4 8 1013.7 1011.5 7.0
21/05:23am -0.6 -4.5 -1.3 95 0.2 SSW 9 20 5 11 1013.7 1011.5 7.0
21/05:00am -0.6 -5.2 -1.4 94 0.3 SSW 13 28 7 15 1013.4 1011.2 7.0
21/04:30am -0.9 -6.0 -1.7 94 0.3 S 15 26 8 14 1013.1 1010.9 7.0
21/04:00am -1.0 -4.5 -1.7 95 0.2 SSW 7 13 4 7 1013.0 1010.8 7.0
21/03:33am -0.9 -6.0 -1.6 95 0.2 SSW 15 22 8 12 1012.8 1010.6 7.0
21/03:30am -1.0 -6.4 -1.7 95 0.2 SSW 17 22 9 12 1012.7 1010.5 7.0
21/03:27am -1.0 -6.4 -1.7 95 0.2 SSW 17 22 9 12 1012.7 1010.5 7.0
21/03:00am -0.8 -6.7 -1.1 98 0.1 SSW 20 28 11 15 1012.6 1010.4 7.0
21/02:47am -0.8 -6.7 -1.1 98 0.1 SSW 20 28 11 15 1012.5 1010.2 7.0
21/02:30am -1.1 -6.1 -1.2 99 0.0 SSW 15 20 8 11 1012.5 1010.2 7.0
21/02:16am -1.1 -6.1 -1.2 99 0.0 SSW 15 20 8 11 1012.7 1010.5 7.0
21/02:00am -1.0 -5.2 -1.1 99 0.0 SW 11 17 6 9 1012.9 1010.7 6.8
21/01:31am -0.4 -5.7 -0.5 99 0.0 SSW 17 24 9 13 1012.7 1010.5 6.8
21/01:30am -0.4 -5.7 -0.5 99 0.0 SSW 17 24 9 13 1012.7 1010.5 6.8
21/01:14am -0.1 -5.0 -0.2 99 0.0 SSW 15 24 8 13 1012.7 1010.5 6.8
21/01:00am -0.1 -5.7 -0.2 99 0.0 SSW 19 30 10 16 1012.6 1010.4 6.6
21/12:30am -0.2 -4.7 -0.3 99 0.0 SW 13 24 7 13 1012.2 1010.0 6.6
21/12:00am 0.0 -4.8 -0.1 99 0.0 SW 15 22 8 12 1012.5 1010.2 6.6
 
Date/Time
EST
Temp
°C
App
Temp
°C
Dew
Point
°C
Rel
Hum
%
Delta-T
°C
Wind Press
QNH
hPa
Press
MSL
hPa
Rain since
9am
mm
Dir  Spd
km/h
Gust
km/h
Spd
kts
Gust
kts
20/11:30pm 0.1 -6.1 0.0 99 0.0 SSW 22 28 12 15 1012.3 1010.1 6.6
20/11:00pm 0.4 -5.3 0.3 99 0.0 SSW 20 33 11 18 1012.3 1010.1 6.6
20/10:30pm 1.0 -4.5 0.9 99 0.0 SSW 19 30 10 16 1012.2 1010.0 6.6
20/10:00pm 1.3 -3.7 1.2 99 0.0 S 17 28 9 15 1012.2 1010.0 6.4
20/09:30pm 1.8 -2.0 1.5 98 0.1 S 11 19 6 10 1011.9 1009.7 5.8
20/09:00pm 2.3 -1.6 1.4 94 0.4 SW 11 22 6 12 1011.6 1009.3 5.6
20/08:30pm 3.0 -1.5 2.1 94 0.4 SSW 15 22 8 12 1011.3 1009.1 5.6
20/08:15pm 3.2 -0.9 2.2 93 0.4 SW 13 28 7 15 1011.3 1009.1 5.6
20/08:00pm 3.1 -0.2 2.5 96 0.3 WSW 9 15 5 8 1011.2 1009.0 5.6
20/07:56pm 3.0 -0.3 2.3 95 0.3 W 9 15 5 8 1011.1 1008.8 5.6
20/07:30pm 3.2 -2.0 2.5 95 0.3 WNW 19 32 10 17 1011.3 1009.1 5.6
20/07:26pm 3.4 -2.0 2.7 95 0.3 WNW 20 32 11 17 1011.2 1009.0 5.4
20/07:16pm 2.9 -1.9 2.5 97 0.2 WNW 17 32 9 17 1011.2 1009.0 5.2
20/07:00pm 2.6 -1.9 2.2 97 0.2 NW 15 19 8 10 1011.1 1008.8 5.2
20/06:30pm 3.5 -0.9 2.6 94 0.4 WSW 15 32 8 17 1011.2 1009.0 3.2
20/06:07pm 4.2 0.3 3.5 95 0.3 SW 13 17 7 9 1010.1 1007.8 2.6
20/06:00pm 4.3 0.0 3.3 93 0.4 WSW 15 24 8 13 1010.0 1007.7 2.4
20/05:30pm 5.2 -2.0 3.1 86 0.9 NW 30 46 16 25 1009.6 1007.3 0.6
20/05:00pm 6.4 1.3 3.0 79 1.5 NW 19 35 10 19 1008.9 1006.6 0.4
20/04:30pm 6.6 -0.3 2.7 76 1.8 NW 28 48 15 26 1009.1 1006.7 0.2
20/04:00pm 8.1 0.6 1.5 63 2.9 NW 30 52 16 28 1009.2 1006.9 0.2
20/03:30pm 9.5 1.5 1.4 57 3.6 NW 33 54 18 29 1008.9 1006.6 0.2
20/03:00pm 9.3 1.5 1.5 58 3.5 NW 32 52 17 28 1009.2 1006.9 0.2
20/02:30pm 9.7 1.9 2.6 61 3.3 WNW 33 52 18 28 1009.5 1007.2 0.2
20/02:00pm 10.4 2.6 3.0 60 3.5 NW 33 52 18 28 1009.7 1007.4 0.2
20/01:30pm 9.1 1.3 2.7 64 2.9 NW 33 54 18 29 1010.1 1007.8 0.2
20/01:00pm 9.5 2.0 3.5 66 2.8 NW 32 50 17 27 1010.4 1008.1 0.2
20/12:43pm 8.4 1.3 3.5 71 2.3 NW 30 48 16 26 1010.9 1008.6 0.2
20/12:30pm 8.2 1.8 5.3 82 1.4 NW 28 44 15 24 1011.2 1009.0 0.2
20/12:08pm 6.0 0.7 3.0 81 1.4 WNW 20 32 11 17 1011.9 1009.7 0.0
20/12:00pm 7.1 1.1 3.2 76 1.8 WNW 24 37 13 20 1011.7 1009.4 0.0
20/11:30am 8.1 1.3 3.0 70 2.3 NW 28 46 15 25 1012.2 1010.0 0.0
20/11:00am 8.2 1.5 1.4 62 3.0 NW 26 41 14 22 1012.5 1010.2 0.0
20/10:30am 7.8 0.3 1.4 64 2.8 NW 30 48 16 26 1012.8 1010.6 0.0
20/10:04am 9.9 1.9 1.5 56 3.8 NW 33 52 18 28 1013.0 1010.8 0.0
20/10:00am 9.5 1.7 1.4 57 3.6 NW 32 46 17 25 1012.9 1010.7 0.0
20/09:41am 8.9 2.0 2.3 63 3.0 NW 28 46 15 25 1013.1 1010.9 0.0
20/09:30am 8.7 1.8 2.5 65 2.8 NW 28 41 15 22 1013.4 1011.2 0.0
20/09:16am 7.2 0.3 2.3 71 2.2 NW 28 46 15 25 1013.7 1011.5 0.0
20/09:00am 7.6 1.4 2.3 69 2.4 NW 24 39 13 21 1013.7 1011.5 0.0
20/08:30am 6.9 2.7 1.8 70 2.3 NW 13 28 7 15 1013.9 1011.8 0.0
20/08:00am 6.8 3.7 1.5 69 2.3 NW 7 20 4 11 1014.2 1012.0 0.0
20/07:30am 6.7 4.2 1.6 70 2.2 NW 4 22 2 12 1013.9 1011.8 0.0
20/07:00am 6.8 5.0 1.1 67 2.5 CALM 0 20 0 11 1013.8 1011.6 0.0
20/06:30am 6.7 2.3 0.6 65 2.6 - 13 37 7 20 1013.7 1011.5 0.0
20/06:00am 6.2 0.5 0.5 67 2.4 WNW 20 32 11 17 1013.6 1011.4 0.0
20/05:30am 6.2 -1.9 0.7 68 2.4 NW 33 48 18 26 1013.0 1010.8 0.0
20/05:10am 6.2 -1.0 0.7 68 2.4 NW 28 54 15 29 1013.0 1010.8 0.0
20/05:00am 5.9 0.2 0.5 68 2.3 NW 20 39 11 21 1012.9 1010.7 0.0
20/04:30am 6.1 1.3 0.4 67 2.4 NW 15 30 8 16 1013.1 1010.9 0.0
20/04:00am 5.5 -1.4 0.1 68 2.3 NW 26 37 14 20 1013.4 1011.2 0.0
20/03:51am 5.9 -1.4 0.3 67 2.4 WNW 28 46 15 25 1013.4 1011.2 0.0
20/03:30am 5.5 -0.2 0.3 69 2.2 WNW 20 35 11 19 1013.4 1011.2 0.0
20/03:00am 4.9 0.8 -0.1 70 2.1 WNW 11 17 6 9 1013.9 1011.8 0.0
20/02:30am 5.3 1.2 -0.1 68 2.2 WNW 11 17 6 9 1014.4 1012.2 0.0
20/02:00am 5.0 2.2 -0.2 69 2.1 NNW 4 19 2 10 1014.7 1012.6 0.0
20/01:30am 4.5 2.0 -0.9 68 2.2 NW 2 15 1 8 1015.1 1012.9 0.0
20/01:00am 4.9 1.5 -0.3 69 2.1 NNW 7 15 4 8 1015.3 1013.2 0.0
20/12:30am 6.1 2.1 0.2 66 2.5 NW 11 22 6 12 1015.5 1013.4 0.0
20/12:00am 6.3 1.5 0.2 65 2.6 NW 15 26 8 14 1015.6 1013.5 0.0
 
Date/Time
EST
Temp
°C
App
Temp
°C
Dew
Point
°C
Rel
Hum
%
Delta-T
°C
Wind Press
QNH
hPa
Press
MSL
hPa
Rain since
9am
mm
Dir  Spd
km/h
Gust
km/h
Spd
kts
Gust
kts
19/11:30pm 6.4 1.6 0.5 66 2.5 NW 15 26 8 14 1015.7 1013.6 0.0
19/11:00pm 6.5 1.4 0.6 66 2.5 NW 17 28 9 15 1016.2 1014.1 0.0
19/10:30pm 6.5 1.4 0.8 67 2.4 NW 17 28 9 15 1016.3 1014.2 0.0
19/10:00pm 6.5 2.2 1.0 68 2.4 NW 13 28 7 15 1016.4 1014.3 0.0
19/09:30pm 6.6 1.2 1.1 68 2.4 NW 19 28 10 15 1016.7 1014.6 0.0
19/09:00pm 6.2 1.5 1.1 70 2.2 WNW 15 30 8 16 1016.7 1014.6 0.0
19/08:30pm 6.7 3.3 1.8 71 2.2 NNW 9 15 5 8 1016.7 1014.6 0.0
19/08:00pm 6.5 2.3 1.4 70 2.2 NW 13 17 7 9 1016.8 1014.7 0.0
19/07:30pm 6.4 2.6 1.5 71 2.1 NW 11 17 6 9 1017.0 1014.9 0.0
19/07:00pm 6.2 2.7 1.3 71 2.1 NW 9 15 5 8 1017.1 1015.0 0.0
19/06:30pm 6.7 2.9 1.8 71 2.2 NW 11 19 6 10 1017.0 1014.9 0.0
19/06:00pm 6.9 3.2 2.2 72 2.1 NW 11 15 6 8 1016.9 1014.8 0.0
19/05:30pm 6.8 3.0 1.9 71 2.2 NW 11 19 6 10 1016.7 1014.6 0.0
19/05:24pm 7.2 2.7 2.1 70 2.3 NW 15 22 8 12 1016.7 1014.6 0.0
19/05:00pm 7.8 4.2 2.7 70 2.3 NW 11 19 6 10 1016.7 1014.6 0.0
19/04:30pm 8.3 3.5 2.5 67 2.6 NW 17 26 9 14 1016.7 1014.6 0.0
19/04:07pm 9.2 4.8 2.8 64 3.0 NW 15 26 8 14 1016.5 1014.4 0.0
19/04:00pm 9.5 5.1 2.8 63 3.1 NW 15 22 8 12 1016.7 1014.6 0.0
19/03:56pm 9.6 4.8 2.7 62 3.2 NW 17 22 9 12 1016.7 1014.6 0.0
19/03:30pm 9.1 4.3 2.4 63 3.1 NNW 17 28 9 15 1016.7 1014.6 0.0
19/03:15pm 9.5 4.6 2.1 60 3.4 NW 17 28 9 15 1016.7 1014.6 0.0
19/03:00pm 10.0 4.8 2.6 60 3.4 NW 19 30 10 16 1016.7 1014.6 0.0
19/02:32pm 9.2 3.1 2.5 63 3.1 NW 24 32 13 17 1016.7 1014.6 0.0
19/02:30pm 9.2 3.5 2.8 64 3.0 NNW 22 32 12 17 1016.7 1014.6 0.0
19/02:21pm 9.0 3.8 2.3 63 3.1 NW 19 32 10 17 1016.8 1014.7 0.0
19/02:00pm 9.9 4.7 2.3 59 3.5 NNW 19 24 10 13 1016.9 1014.8 0.0
19/01:30pm 11.2 5.9 2.0 53 4.2 NNW 19 24 10 13 1017.0 1014.9 0.0
19/01:00pm 12.1 7.3 2.6 52 4.5 NW 17 26 9 14 1017.1 1015.0 0.0
19/12:30pm 11.3 6.3 1.5 51 4.5 NNW 17 24 9 13 1017.4 1015.4 0.0
19/12:00pm 12.1 6.8 1.7 49 4.8 NW 19 26 10 14 1017.9 1015.8 0.0
19/11:30am 12.1 6.9 2.6 52 4.5 NW 19 24 10 13 1018.1 1016.1 0.0
19/11:00am 12.3 7.1 2.2 50 4.7 WNW 19 28 10 15 1018.2 1016.2 0.0
19/10:30am 12.4 7.7 1.1 46 5.2 NNW 15 24 8 13 1018.2 1016.2 0.0
19/10:00am 11.9 7.6 1.3 48 4.8 NW 13 17 7 9 1018.1 1016.1 0.0
19/09:30am 10.9 6.2 0.6 49 4.6 NW 15 22 8 12 1018.4 1016.3 0.0
19/09:00am 9.5 6.9 3.0 64 3.0 ESE 6 9 3 5 1018.6 1016.5 0.0
19/08:30am 9.4 6.4 1.1 56 3.7 NNE 6 11 3 6 1018.5 1016.4 0.0
19/08:00am 8.0 5.4 0.7 60 3.2 N 4 15 2 8 1018.4 1016.3 0.0
19/07:30am 6.8 3.0 -0.4 60 3.0 NNW 9 15 5 8 1018.0 1016.0 0.0
19/07:00am 4.6 2.6 -0.2 71 2.0 CALM 0 0 0 0 1017.9 1015.8 0.0
19/06:30am 4.2 2.2 -0.4 72 1.9 CALM 0 0 0 0 1017.8 1015.7 0.0
19/06:15am 2.9 0.9 -0.4 79 1.3 CALM 0 0 0 0 1017.8 1015.7 0.0
19/06:00am 2.6 0.6 0.0 83 1.1 CALM 0 0 0 0 1017.8 1015.7 0.0
19/05:30am 2.7 0.8 0.4 85 0.9 CALM 0 9 0 5 1017.9 1015.8 0.0
19/05:00am 3.2 0.1 0.3 81 1.2 NW 6 17 3 9 1017.8 1015.7 0.0
19/04:30am 3.2 1.2 -0.4 77 1.5 CALM 0 0 0 0 1018.0 1016.0 0.0
19/04:00am 3.4 1.4 -0.4 76 1.5 CALM 0 0 0 0 1017.9 1015.8 0.0
19/03:53am 3.2 1.2 -0.3 78 1.4 CALM 0 0 0 0 1017.9 1015.8 0.0
19/03:46am 3.1 0.9 -1.6 71 1.8 CALM 0 0 0 0 1018.0 1016.0 0.0
19/03:30am 5.0 3.0 0.0 70 2.1 CALM 0 0 0 0 1018.1 1016.1 0.0
19/03:02am 3.8 0.4 1.8 87 0.9 NW 9 13 5 7 1018.4 1016.3 0.0
19/03:00am 3.6 0.2 1.6 87 0.9 NW 9 13 5 7 1018.5 1016.4 0.0
19/02:30am 3.6 0.2 1.8 88 0.8 NW 9 11 5 6 1018.9 1016.9 0.0
19/02:19am 3.4 -0.3 2.2 92 0.5 WNW 11 11 6 6 1018.9 1016.9 0.0
19/02:01am 1.7 -1.9 0.8 94 0.4 NW 9 11 5 6 1019.0 1017.0 0.0
19/02:00am 2.0 -1.5 1.1 94 0.4 NW 9 11 5 6 1019.0 1017.0 0.0
19/01:58am 2.8 -0.5 2.2 96 0.3 NW 9 11 5 6 1019.2 1017.1 0.0
19/01:30am 3.3 0.1 3.2 99 0.0 NNW 9 11 5 6 1019.5 1017.5 0.0
19/01:00am 3.3 0.1 3.2 99 0.0 NNW 9 11 5 6 1019.7 1017.7 0.0
19/12:30am 3.8 0.3 3.7 99 0.0 NNW 11 13 6 7 1019.9 1017.9 0.0
19/12:00am 3.5 0.0 3.4 99 0.0 NNW 11 13 6 7 1020.2 1018.2 0.0

Other formats

Comma delimited format used in spreadsheet applications
http://www.bom.gov.au/fwo/IDV60801/IDV60801.94905.axf

JavaScript Object Notation format (JSON) in row-major order
http://www.bom.gov.au/fwo/IDV60801/IDV60801.94905.json

Data quality

Most of these data are generated automatically and are frequently updated. Quality checks on data are not normally performed. It is possible for incorrect values to appear. Refer to information at About Latest Weather Observations and please check the disclaimer before using these data.